createdAt,value
2022-12-26T00:01:02.869Z,89.52
2022-12-26T00:06:14.219Z,89.36
2022-12-26T00:11:20.148Z,89.51
2022-12-26T00:16:26.497Z,89.80
2022-12-26T00:21:32.468Z,89.91
2022-12-26T00:26:38.139Z,90.10
2022-12-26T00:31:43.682Z,90.04
2022-12-26T00:36:49.300Z,90.22
2022-12-26T00:41:54.820Z,90.59
2022-12-26T00:47:00.417Z,90.53
2022-12-26T00:52:06.388Z,90.55
2022-12-26T00:57:12.037Z,90.82
2022-12-26T01:02:35.259Z,90.94
2022-12-26T01:08:23.074Z,91.26
2022-12-26T01:12:49.164Z,91.11
2022-12-26T01:17:54.755Z,91.25
2022-12-26T01:23:00.280Z,91.47
2022-12-26T01:28:06.120Z,91.46
2022-12-26T01:33:11.545Z,91.62
2022-12-26T01:38:17.477Z,91.85
2022-12-26T01:43:22.993Z,91.85
2022-12-26T01:48:33.130Z,91.95
2022-12-26T01:53:44.117Z,92.29
2022-12-26T01:58:55.300Z,92.34
2022-12-26T02:04:21.886Z,92.33
2022-12-26T02:09:27.421Z,92.42
2022-12-26T02:14:34.440Z,92.46
2022-12-26T02:19:54.611Z,92.89
2022-12-26T02:25:24.198Z,92.66
2022-12-26T02:30:38.365Z,92.60
2022-12-26T02:35:59.010Z,92.59
2022-12-26T02:41:18.019Z,92.59
2022-12-26T02:46:44.034Z,92.54
2022-12-26T02:52:13.230Z,92.85
2022-12-26T02:57:39.270Z,92.83
2022-12-26T03:03:17.964Z,92.43
2022-12-26T03:08:50.411Z,92.82
2022-12-26T03:13:58.855Z,92.82
2022-12-26T03:19:07.357Z,92.80
2022-12-26T03:24:15.625Z,92.74
2022-12-26T03:29:41.553Z,92.66
2022-12-26T03:34:46.952Z,92.96
2022-12-26T03:40:29.637Z,93.00
2022-12-26T03:46:12.639Z,92.82
2022-12-26T03:51:39.222Z,92.82
2022-12-26T03:57:05.575Z,93.10
2022-12-26T04:02:30.981Z,93.06
2022-12-26T04:07:58.439Z,92.98
2022-12-26T04:13:25.364Z,93.01
2022-12-26T04:19:04.337Z,93.00
2022-12-26T04:24:34.327Z,93.22
2022-12-26T04:29:58.112Z,93.00
2022-12-26T04:35:30.501Z,93.30
2022-12-26T04:40:57.150Z,93.42
2022-12-26T04:46:03.453Z,93.22
2022-12-26T04:51:09.013Z,93.24
2022-12-26T04:56:14.966Z,93.34
2022-12-26T05:01:38.347Z,93.15
2022-12-26T05:07:01.830Z,93.27
2022-12-26T05:12:09.966Z,93.22
2022-12-26T05:17:34.093Z,93.22
2022-12-26T05:23:01.097Z,92.98
2022-12-26T05:28:25.540Z,92.87
2022-12-26T05:33:49.374Z,87.47
2022-12-26T05:38:56.298Z,90.89
2022-12-26T05:44:01.819Z,91.68
2022-12-26T05:49:08.219Z,92.12
2022-12-26T05:54:13.713Z,92.35
2022-12-26T05:59:19.171Z,92.80
2022-12-26T06:04:24.709Z,92.86
2022-12-26T06:09:30.237Z,92.78
2022-12-26T06:14:35.612Z,92.96
2022-12-26T06:19:46.559Z,92.93
2022-12-26T06:24:48.324Z,92.80
2022-12-26T06:29:53.713Z,92.99
2022-12-26T06:34:59.509Z,93.14
2022-12-26T06:40:05.483Z,93.02
2022-12-26T06:45:11.970Z,92.67
2022-12-26T06:50:17.592Z,92.86
2022-12-26T06:55:23.268Z,92.53
2022-12-26T07:00:30.415Z,92.63
2022-12-26T07:05:38.083Z,92.40
2022-12-26T07:10:43.509Z,92.16
2022-12-26T07:15:48.966Z,92.05
2022-12-26T07:20:54.505Z,91.62
2022-12-26T07:26:00.522Z,91.43
2022-12-26T07:31:06.554Z,91.38
2022-12-26T07:36:12.216Z,91.06
2022-12-26T07:41:35.570Z,91.26
2022-12-26T07:46:41.075Z,90.84
2022-12-26T07:51:46.522Z,90.70
2022-12-26T07:56:51.986Z,90.70
2022-12-26T08:01:59.396Z,90.37
2022-12-26T08:07:05.275Z,90.14
2022-12-26T08:12:11.039Z,89.91
2022-12-26T08:17:16.909Z,89.39
2022-12-26T08:22:22.331Z,89.18
2022-12-26T08:27:27.709Z,89.10
2022-12-26T08:32:33.158Z,88.91
2022-12-26T08:37:38.549Z,88.76
2022-12-26T08:42:56.109Z,88.43
2022-12-26T08:47:52.115Z,88.06
2022-12-26T08:52:57.501Z,88.06
2022-12-26T08:58:02.914Z,87.59
2022-12-26T09:03:08.816Z,87.19
2022-12-26T09:08:14.631Z,86.98
2022-12-26T09:13:20.382Z,87.00
2022-12-26T09:18:25.837Z,87.32
2022-12-26T09:23:31.868Z,87.24
2022-12-26T09:28:38.127Z,87.29
2022-12-26T09:33:43.594Z,87.56
2022-12-26T09:38:50.481Z,87.19
2022-12-26T09:44:15.480Z,84.01
2022-12-26T09:49:26.492Z,86.35
2022-12-26T09:54:37.740Z,86.47
2022-12-26T09:59:49.250Z,86.98
2022-12-26T10:04:55.880Z,87.27
2022-12-26T10:10:16.539Z,87.01
2022-12-26T10:15:33.877Z,87.00
2022-12-26T10:20:57.114Z,87.00
2022-12-26T10:26:23.322Z,86.74
2022-12-26T10:31:38.360Z,87.00
2022-12-26T10:36:52.905Z,87.20
2022-12-26T10:42:01.638Z,87.14
2022-12-26T10:47:16.028Z,87.00
2022-12-26T10:52:24.472Z,86.63
2022-12-26T10:57:33.218Z,86.90
2022-12-26T11:02:38.781Z,86.53
2022-12-26T11:07:59.375Z,86.67
2022-12-26T11:13:08.271Z,86.48
2022-12-26T11:18:26.017Z,86.64
2022-12-26T11:23:34.980Z,86.63
2022-12-26T11:28:40.519Z,86.77
2022-12-26T11:33:48.664Z,87.02
2022-12-26T11:39:05.923Z,86.49
2022-12-26T11:44:14.430Z,86.06
2022-12-26T11:49:22.866Z,86.07
2022-12-26T11:54:31.665Z,86.05
2022-12-26T11:59:37.274Z,85.71
2022-12-26T12:04:43.646Z,85.75
2022-12-26T12:10:13.657Z,85.45
2022-12-26T12:15:22.275Z,85.30
2022-12-26T12:20:44.389Z,85.31
2022-12-26T12:26:01.426Z,85.16
2022-12-26T12:31:33.006Z,85.05
2022-12-26T12:37:15.411Z,84.80
2022-12-26T12:42:26.654Z,84.41
2022-12-26T12:47:41.087Z,84.22
2022-12-26T12:52:55.740Z,84.26
2022-12-26T12:58:16.169Z,83.90
2022-12-26T13:03:36.860Z,83.79
2022-12-26T13:08:45.461Z,83.56
2022-12-26T13:14:09.989Z,83.45
2022-12-26T13:19:21.437Z,83.50
2022-12-26T13:24:45.853Z,83.14
2022-12-26T13:29:52.868Z,82.92
2022-12-26T13:35:01.009Z,82.97
2022-12-26T13:40:18.270Z,82.80
2022-12-26T13:45:46.515Z,82.58
2022-12-26T13:51:04.037Z,82.72
2022-12-26T13:56:21.509Z,82.79
2022-12-26T14:02:02.987Z,82.99
2022-12-26T14:07:09.058Z,82.40
2022-12-26T14:12:36.762Z,82.56
2022-12-26T14:18:03.388Z,82.07
2022-12-26T14:23:12.055Z,82.04
2022-12-26T14:28:26.315Z,81.89
2022-12-26T14:33:55.279Z,81.91
2022-12-26T14:39:06.511Z,81.79
2022-12-26T14:44:20.754Z,81.93
2022-12-26T14:49:35.977Z,81.73
2022-12-26T14:54:50.260Z,81.57
2022-12-26T15:00:17.096Z,81.44
2022-12-26T15:05:25.863Z,81.57
2022-12-26T15:10:37.048Z,81.45
2022-12-26T15:15:57.505Z,81.36
2022-12-26T15:21:33.353Z,81.48
2022-12-26T15:26:50.824Z,82.21
2022-12-26T15:32:03.712Z,81.76
2022-12-26T15:37:12.247Z,81.89
2022-12-26T15:42:20.773Z,81.81
2022-12-26T15:47:47.259Z,81.77
2022-12-26T15:52:58.393Z,81.89
2022-12-26T15:58:09.837Z,81.69
2022-12-26T16:03:27.357Z,81.73
2022-12-26T16:08:40.277Z,81.85
2022-12-26T16:13:58.515Z,81.63
2022-12-26T16:19:29.461Z,81.58
2022-12-26T16:24:38.167Z,81.80
2022-12-26T16:29:53.070Z,81.56
2022-12-26T16:35:00.389Z,81.30
2022-12-26T16:40:18.327Z,81.56
2022-12-26T16:45:25.225Z,81.44
2022-12-26T16:50:33.239Z,81.14
2022-12-26T16:55:44.562Z,82.56
2022-12-26T17:01:12.625Z,80.92
2022-12-26T17:06:32.987Z,81.28
2022-12-26T17:11:47.660Z,81.32
2022-12-26T17:17:05.312Z,81.43
2022-12-26T17:22:37.798Z,81.60
2022-12-26T17:27:43.706Z,81.08
2022-12-26T17:32:49.536Z,80.95
2022-12-26T17:38:00.763Z,80.81
2022-12-26T17:43:15.195Z,80.65
2022-12-26T17:48:20.782Z,80.05
2022-12-26T17:53:34.083Z,79.91
2022-12-26T17:58:39.788Z,79.87
2022-12-26T18:03:45.227Z,79.28
2022-12-26T18:08:50.987Z,81.04
2022-12-26T18:13:56.378Z,79.07
2022-12-26T18:19:02.917Z,78.02
2022-12-26T18:24:09.004Z,78.35
2022-12-26T18:29:14.444Z,78.09
2022-12-26T18:34:19.840Z,77.85
2022-12-26T18:39:25.458Z,77.46
2022-12-26T18:44:30.953Z,76.86
2022-12-26T18:49:36.447Z,76.43
2022-12-26T18:54:42.282Z,75.67
2022-12-26T18:59:48.586Z,74.93
2022-12-26T19:04:54.468Z,74.09
2022-12-26T19:10:01.179Z,73.70
2022-12-26T19:15:07.308Z,73.16
2022-12-26T19:20:18.766Z,73.88
2022-12-26T19:25:26.144Z,72.57
2022-12-26T19:30:38.326Z,73.24
2022-12-26T19:35:38.756Z,72.37
2022-12-26T19:40:44.181Z,72.50
2022-12-26T19:45:49.672Z,72.76
2022-12-26T19:50:55.331Z,72.72
2022-12-26T19:56:01.039Z,72.69
2022-12-26T20:01:09.264Z,72.70
2022-12-26T20:06:20.649Z,72.63
2022-12-26T20:11:31.751Z,72.33
2022-12-26T20:17:04.413Z,71.87
2022-12-26T20:21:44.445Z,71.98
2022-12-26T20:26:51.082Z,71.69
2022-12-26T20:31:56.719Z,71.25
2022-12-26T20:37:02.158Z,71.48
2022-12-26T20:42:07.826Z,71.45
2022-12-26T20:47:13.578Z,71.25
2022-12-26T20:52:19.197Z,71.29
2022-12-26T20:57:24.735Z,71.24
2022-12-26T21:02:30.546Z,71.24
2022-12-26T21:07:36.330Z,71.36
2022-12-26T21:12:41.906Z,71.16
2022-12-26T21:17:48.009Z,71.16
2022-12-26T21:22:55.933Z,70.98
2022-12-26T21:28:01.463Z,71.00
2022-12-26T21:33:06.944Z,70.73
2022-12-26T21:38:12.483Z,70.26
2022-12-26T21:43:18.641Z,70.12
2022-12-26T21:48:24.791Z,70.02
2022-12-26T21:53:30.179Z,69.80
2022-12-26T21:58:37.658Z,69.54
2022-12-26T22:04:01.056Z,69.54
2022-12-26T22:09:07.799Z,69.51
2022-12-26T22:14:13.709Z,69.51
2022-12-26T22:19:19.244Z,69.39
2022-12-26T22:24:24.701Z,69.22
2022-12-26T22:29:31.044Z,69.56
2022-12-26T22:34:38.078Z,69.69
2022-12-26T22:39:45.880Z,69.88
2022-12-26T22:44:51.588Z,69.94
2022-12-26T22:49:57.202Z,69.74
2022-12-26T22:55:02.629Z,70.08
2022-12-26T23:00:11.862Z,70.46
2022-12-26T23:05:18.151Z,70.58
2022-12-26T23:10:25.278Z,70.84
2022-12-26T23:15:31.498Z,70.94
2022-12-26T23:20:57.223Z,71.10
2022-12-26T23:26:02.755Z,71.48
2022-12-26T23:31:08.867Z,71.59
2022-12-26T23:36:14.450Z,71.89
2022-12-26T23:41:19.845Z,71.81
2022-12-26T23:46:25.422Z,72.00
2022-12-26T23:51:30.911Z,72.17
2022-12-26T23:56:38.129Z,72.21
